Time;durP1;ratioP1;P1;durP2;ratioP2;P2;SDS_P1;SDS_P2;PMS_P1;PMS_P2;Temp;Humidity;BMP_temperature;BMP_pressure;BME280_temperature;BME280_humidity;BME280_pressure;Samples;Min_cycle;Max_cycle;Signal;HPM_P1;HPM_P2
2022/12/20 00:01:39;;;;;;;41.50;21.90;;;;;;;-1.27;78.94;101258.70;103124;1329;37222;-72
2022/12/20 00:04:14;;;;;;;43.20;23.20;;;;;;;-1.22;79.34;101255.91;103113;1329;37374;-72
2022/12/20 00:06:48;;;;;;;48.90;25.10;;;;;;;-1.18;79.49;101249.16;103098;1330;37166;-72
2022/12/20 00:09:25;;;;;;;48.60;24.20;;;;;;;-1.13;79.43;101241.58;103109;1330;37262;-73
2022/12/20 00:12:00;;;;;;;44.30;22.30;;;;;;;-1.10;79.82;101239.41;103039;1329;175396;-72
2022/12/20 00:14:34;;;;;;;42.60;22.90;;;;;;;-1.06;79.66;101235.05;103092;1329;37122;-72
2022/12/20 00:17:08;;;;;;;43.10;22.70;;;;;;;-1.00;79.73;101232.09;103153;1326;37158;-73
2022/12/20 00:19:43;;;;;;;43.10;22.20;;;;;;;-0.98;79.87;101230.42;103134;1329;38277;-73
2022/12/20 00:22:17;;;;;;;46.20;24.10;;;;;;;-0.96;80.00;101225.52;103142;1327;36748;-73
2022/12/20 00:24:51;;;;;;;41.40;21.50;;;;;;;-0.92;79.84;101220.81;103117;1326;37336;-72
2022/12/20 00:27:24;;;;;;;42.90;22.70;;;;;;;-0.91;80.13;101222.04;103147;1325;37412;-72
2022/12/20 00:29:58;;;;;;;40.00;21.60;;;;;;;-0.84;80.47;101220.63;103174;1326;37334;-72
2022/12/20 00:32:33;;;;;;;46.00;23.00;;;;;;;-0.77;80.49;101214.63;103161;1326;37293;-73
2022/12/20 00:35:08;;;;;;;44.90;22.70;;;;;;;-0.73;80.47;101215.23;103189;1326;37374;-73
2022/12/20 00:37:42;;;;;;;42.40;23.10;;;;;;;-0.70;80.60;101213.40;103145;1324;37120;-73
2022/12/20 00:40:16;;;;;;;43.70;22.40;;;;;;;-0.70;80.83;101213.76;103115;1329;37239;-73
2022/12/20 00:42:50;;;;;;;43.80;21.50;;;;;;;-0.69;80.96;101212.77;103131;1326;37730;-72
2022/12/20 00:45:24;;;;;;;43.50;22.70;;;;;;;-0.66;81.01;101208.19;103155;1326;37161;-70
2022/12/20 00:47:58;;;;;;;41.20;21.00;;;;;;;-0.62;81.17;101202.80;103091;1329;37973;-72
2022/12/20 00:50:33;;;;;;;38.50;21.50;;;;;;;-0.57;81.34;101201.52;103079;1326;37484;-72
2022/12/20 00:53:09;;;;;;;43.80;22.30;;;;;;;-0.48;81.76;101206.50;103114;1329;37249;-73
2022/12/20 00:55:46;;;;;;;40.20;21.00;;;;;;;-0.44;81.67;101203.15;103136;1329;37701;-73
2022/12/20 00:58:19;;;;;;;38.60;20.50;;;;;;;-0.42;81.74;101200.97;103104;1326;37657;-72
2022/12/20 01:00:54;;;;;;;36.50;20.40;;;;;;;-0.39;81.90;101200.00;103167;1326;38409;-72
2022/12/20 01:03:30;;;;;;;35.80;20.70;;;;;;;-0.38;82.10;101195.56;103119;1326;37324;-72
2022/12/20 01:06:05;;;;;;;36.20;19.60;;;;;;;-0.35;82.27;101197.16;103142;1326;37141;-73
2022/12/20 01:08:38;;;;;;;37.40;20.40;;;;;;;-0.31;82.64;101192.77;103186;1326;37766;-72
2022/12/20 01:11:19;;;;;;;37.30;18.70;;;;;;;-0.30;82.48;101192.45;103182;1326;37234;-72
2022/12/20 01:13:55;;;;;;;36.60;20.90;;;;;;;-0.25;82.54;101191.86;103174;1329;37155;-73
2022/12/20 01:16:35;;;;;;;40.30;22.60;;;;;;;-0.18;82.80;101183.96;103182;1329;37315;-72
2022/12/20 01:19:10;;;;;;;45.60;21.80;;;;;;;-0.17;82.91;101180.18;103142;1326;38770;-72
2022/12/20 01:21:44;;;;;;;42.40;23.20;;;;;;;-0.20;83.26;101183.21;103119;1329;37882;-72
2022/12/20 01:24:20;;;;;;;41.60;22.10;;;;;;;-0.19;83.30;101184.27;103140;1330;37273;-72
2022/12/20 01:26:55;;;;;;;44.10;24.20;;;;;;;-0.13;83.44;101182.33;103109;1326;37278;-72
2022/12/20 01:29:30;;;;;;;37.30;20.30;;;;;;;-0.08;83.59;101170.24;103108;1326;37241;-70
2022/12/20 01:32:06;;;;;;;38.10;21.10;;;;;;;-0.04;83.51;101164.48;103119;1329;37384;-72
2022/12/20 01:34:40;;;;;;;46.40;22.70;;;;;;;-0.01;83.65;101150.65;103091;1325;37520;-72
2022/12/20 01:37:16;;;;;;;35.20;19.00;;;;;;;0.00;83.68;101143.46;103150;1325;36340;-72
2022/12/20 01:39:51;;;;;;;39.10;20.90;;;;;;;0.03;83.82;101138.35;103110;1329;37768;-72
2022/12/20 01:42:26;;;;;;;33.80;19.70;;;;;;;0.08;84.07;101136.55;103134;1329;37220;-73
2022/12/20 01:45:01;;;;;;;32.70;19.20;;;;;;;0.11;84.17;101129.58;103191;1326;37221;-73
2022/12/20 01:47:36;;;;;;;35.00;19.10;;;;;;;0.14;84.13;101121.23;103120;1311;37145;-72
2022/12/20 01:50:14;;;;;;;36.00;20.40;;;;;;;0.18;84.17;101119.05;103152;1329;37697;-73
2022/12/20 01:52:48;;;;;;;32.80;19.10;;;;;;;0.20;84.29;101115.32;103152;1329;36808;-73
2022/12/20 01:55:25;;;;;;;36.60;19.50;;;;;;;0.26;84.52;101109.05;103107;1330;36471;-73
2022/12/20 01:58:00;;;;;;;33.90;19.40;;;;;;;0.30;84.32;101101.91;103133;1330;37315;-73
2022/12/20 02:00:36;;;;;;;33.80;20.00;;;;;;;0.31;84.34;101096.43;103168;1325;38480;-72
2022/12/20 02:03:12;;;;;;;34.00;19.80;;;;;;;0.33;84.44;101091.83;103146;1326;36624;-72
2022/12/20 02:05:47;;;;;;;36.60;20.80;;;;;;;0.37;84.53;101093.61;103127;1329;37253;-70
2022/12/20 02:08:22;;;;;;;36.60;19.50;;;;;;;0.41;84.44;101095.56;103131;1326;36337;-72
2022/12/20 02:11:09;;;;;;;32.10;17.50;;;;;;;0.43;84.52;101096.44;103110;1329;37217;-72
2022/12/20 02:13:51;;;;;;;34.90;19.70;;;;;;;0.45;84.45;101087.39;103126;1326;36843;-72
2022/12/20 02:16:28;;;;;;;31.20;18.00;;;;;;;0.45;84.40;101086.70;103121;1329;37270;-72
2022/12/20 02:19:06;;;;;;;32.70;18.90;;;;;;;0.47;84.46;101092.91;103160;1329;37331;-72
2022/12/20 02:21:40;;;;;;;31.90;18.90;;;;;;;0.49;84.59;101087.45;103095;1326;37204;-73
2022/12/20 02:25:04;;;;;;;33.30;19.10;;;;;;;0.52;84.67;101085.93;103138;1329;37792;-73
2022/12/20 02:28:00;;;;;;;33.10;19.20;;;;;;;0.55;84.63;101077.05;102538;1337;37841;-73
2022/12/20 02:30:37;;;;;;;35.00;18.60;;;;;;;0.58;84.85;101077.43;103085;1329;37170;-73
2022/12/20 02:33:12;;;;;;;31.80;19.70;;;;;;;0.59;84.84;101073.83;103126;1329;37128;-73
2022/12/20 02:35:46;;;;;;;34.30;18.50;;;;;;;0.61;84.92;101071.65;103156;1329;37270;-73
2022/12/20 02:38:35;;;;;;;30.50;16.90;;;;;;;0.62;84.87;101070.61;103140;1326;37982;-72
2022/12/20 02:41:12;;;;;;;31.10;18.00;;;;;;;0.64;84.71;101071.86;103036;1330;173098;-73
2022/12/20 02:46:39;;;;;;;32.70;18.70;;;;;;;0.73;85.18;101068.36;103132;1329;38560;-73
2022/12/20 02:49:16;;;;;;;31.80;19.10;;;;;;;0.76;84.96;101070.48;103157;1327;36767;-73
2022/12/20 02:51:51;;;;;;;31.70;18.50;;;;;;;0.77;85.08;101061.55;103171;1329;38337;-73
2022/12/20 02:54:25;;;;;;;31.20;18.00;;;;;;;0.80;84.98;101063.14;103121;1327;37118;-72
2022/12/20 02:57:05;;;;;;;31.30;18.30;;;;;;;0.78;85.07;101062.95;103095;1329;37832;-70
2022/12/20 02:59:43;;;;;;;31.60;17.80;;;;;;;0.77;85.36;101058.29;103116;1329;37225;-73
2022/12/20 03:02:17;;;;;;;30.40;17.50;;;;;;;0.80;85.41;101051.64;103131;1329;37257;-72
2022/12/20 03:04:51;;;;;;;33.30;17.90;;;;;;;0.85;85.41;101052.38;103093;1329;36494;-73
2022/12/20 03:07:25;;;;;;;33.00;18.50;;;;;;;0.89;85.26;101053.63;103112;1329;38437;-72
2022/12/20 03:09:59;;;;;;;32.10;18.00;;;;;;;0.90;85.21;101052.27;103104;1329;37792;-72
2022/12/20 03:12:33;;;;;;;30.80;17.60;;;;;;;0.93;85.44;101051.44;103092;1329;37140;-72
2022/12/20 03:15:08;;;;;;;28.00;15.90;;;;;;;0.96;85.46;101046.84;103085;1329;37205;-73
2022/12/20 03:17:42;;;;;;;27.30;15.80;;;;;;;0.95;85.36;101047.70;103129;1329;37137;-73
2022/12/20 03:20:16;;;;;;;31.90;18.00;;;;;;;0.95;85.55;101055.42;103118;1326;37422;-73
2022/12/20 03:22:50;;;;;;;30.30;17.80;;;;;;;0.97;85.51;101060.25;103150;1329;36120;-72
2022/12/20 03:25:24;;;;;;;29.90;16.50;;;;;;;0.98;85.68;101067.32;103063;1329;174889;-72
2022/12/20 03:27:58;;;;;;;29.10;16.60;;;;;;;1.01;85.67;101058.42;103194;1325;37974;-73
2022/12/20 03:30:31;;;;;;;27.50;16.90;;;;;;;1.02;85.54;101046.73;103140;1329;37113;-73
2022/12/20 03:33:05;;;;;;;27.70;17.10;;;;;;;1.05;85.73;101036.65;103086;1329;173082;-73
2022/12/20 03:35:39;;;;;;;31.00;17.90;;;;;;;1.09;85.77;101045.45;103165;1329;37112;-73
2022/12/20 03:38:13;;;;;;;29.30;18.00;;;;;;;1.10;85.54;101037.39;103131;1329;36351;-71
2022/12/20 03:40:47;;;;;;;27.60;16.90;;;;;;;1.10;85.67;101042.71;103122;1329;37210;-73
2022/12/20 03:43:21;;;;;;;28.50;17.10;;;;;;;1.09;85.41;101041.84;103162;1329;37267;-74
2022/12/20 03:45:54;;;;;;;28.40;16.30;;;;;;;1.13;85.71;101042.56;103081;1330;38331;-73
2022/12/20 03:48:28;;;;;;;27.10;16.70;;;;;;;1.17;85.70;101049.14;103111;1326;37130;-73
2022/12/20 03:51:02;;;;;;;29.60;16.10;;;;;;;1.21;85.60;101039.40;103089;1329;37214;-74
2022/12/20 03:53:36;;;;;;;28.00;17.60;;;;;;;1.22;85.64;101032.54;103117;1329;37122;-73
2022/12/20 03:56:10;;;;;;;27.80;16.00;;;;;;;1.25;85.72;101037.73;103072;1329;37190;-72
2022/12/20 03:58:44;;;;;;;27.10;16.20;;;;;;;1.27;85.81;101037.91;103094;1328;37296;-72
2022/12/20 04:01:23;;;;;;;26.80;15.80;;;;;;;1.33;85.77;101041.09;103111;1328;37410;-73
2022/12/20 04:03:57;;;;;;;25.40;14.80;;;;;;;1.36;85.43;101040.59;103091;1330;38239;-73
2022/12/20 04:06:31;;;;;;;28.40;16.90;;;;;;;1.35;85.31;101045.56;103125;1329;37130;-73
2022/12/20 04:09:04;;;;;;;28.30;16.10;;;;;;;1.31;85.42;101045.70;103039;1329;175240;-72
2022/12/20 04:11:39;;;;;;;27.00;15.80;;;;;;;1.32;85.51;101039.33;102507;1329;916454;-72
2022/12/20 04:14:13;;;;;;;24.20;14.90;;;;;;;1.31;85.33;101030.56;103143;1326;36728;-69
2022/12/20 04:16:47;;;;;;;25.60;14.70;;;;;;;1.28;85.33;101024.35;103179;1325;37278;-70
2022/12/20 04:19:21;;;;;;;28.80;15.10;;;;;;;1.30;85.63;101018.35;103151;1329;37282;-72
2022/12/20 04:21:57;;;;;;;25.00;16.00;;;;;;;1.32;85.48;101014.58;103093;1326;37197;-72
2022/12/20 04:24:31;;;;;;;26.40;15.00;;;;;;;1.31;85.76;101009.59;103102;1328;37141;-72
2022/12/20 04:27:05;;;;;;;28.00;16.50;;;;;;;1.31;85.82;101006.17;103137;1326;36100;-72
2022/12/20 04:29:39;;;;;;;21.60;14.00;;;;;;;1.34;85.63;101012.55;103104;1326;37415;-73
2022/12/20 04:32:13;;;;;;;24.80;14.80;;;;;;;1.37;85.75;101001.91;103108;1329;37061;-73
2022/12/20 04:34:47;;;;;;;26.80;15.20;;;;;;;1.39;85.65;101006.76;103156;1326;37356;-73
2022/12/20 04:37:21;;;;;;;27.60;16.10;;;;;;;1.39;85.68;101016.38;103142;1326;37327;-73
2022/12/20 04:39:57;;;;;;;28.30;15.60;;;;;;;1.36;85.56;101016.00;103101;1329;36366;-73
2022/12/20 04:42:31;;;;;;;27.40;15.30;;;;;;;1.35;85.75;101016.85;103153;1314;37105;-73
2022/12/20 04:45:05;;;;;;;26.20;15.00;;;;;;;1.33;85.81;101016.66;103068;1326;38653;-73
2022/12/20 04:47:39;;;;;;;25.60;14.60;;;;;;;1.32;85.70;101019.58;103145;1329;37301;-71
2022/12/20 04:50:13;;;;;;;26.90;14.30;;;;;;;1.32;86.05;101022.33;103107;1326;37153;-73
2022/12/20 04:55:41;;;;;;;27.20;15.10;;;;;;;1.39;86.11;101025.85;103154;1329;37129;-73
2022/12/20 04:58:15;;;;;;;27.70;16.40;;;;;;;1.38;85.91;101031.33;103104;1329;37264;-73
2022/12/20 05:00:51;;;;;;;23.50;14.10;;;;;;;1.32;85.75;101022.17;103180;1326;37121;-74
2022/12/20 05:03:25;;;;;;;28.30;15.70;;;;;;;1.25;85.76;101010.91;103128;1329;37226;-70
2022/12/20 05:05:59;;;;;;;22.00;13.90;;;;;;;1.24;85.92;101009.20;103172;1329;37323;-71
2022/12/20 05:08:35;;;;;;;24.10;14.80;;;;;;;1.23;85.91;101010.55;103153;1327;36474;-70
2022/12/20 05:11:09;;;;;;;23.10;13.40;;;;;;;1.24;86.15;101012.80;103116;1329;37440;-69
2022/12/20 05:13:43;;;;;;;22.30;13.60;;;;;;;1.26;86.18;101003.02;103115;1325;36572;-72
2022/12/20 05:16:18;;;;;;;25.30;15.60;;;;;;;1.27;86.17;100989.95;103078;1329;37239;-73
2022/12/20 05:18:52;;;;;;;26.90;15.40;;;;;;;1.28;86.17;100994.11;103048;1328;37538;-70
2022/12/20 05:27:08;;;;;;;24.00;14.10;;;;;;;1.26;86.17;100989.45;103118;1326;37299;-71
2022/12/20 05:29:42;;;;;;;22.20;14.10;;;;;;;1.24;86.25;100982.90;103089;1327;38606;-71
2022/12/20 05:32:16;;;;;;;25.20;15.30;;;;;;;1.28;86.45;100978.64;103106;1329;38301;-71
2022/12/20 05:34:50;;;;;;;27.30;15.70;;;;;;;1.30;86.43;100978.14;103140;1329;37139;-73
2022/12/20 05:37:24;;;;;;;27.00;14.90;;;;;;;1.33;86.56;100980.38;103108;1326;38182;-73
2022/12/20 05:39:58;;;;;;;25.60;14.80;;;;;;;1.33;86.47;100981.95;103150;1329;36516;-71
2022/12/20 05:42:32;;;;;;;25.10;13.90;;;;;;;1.35;86.37;100985.75;103041;1329;172732;-72
2022/12/20 05:45:06;;;;;;;25.40;14.40;;;;;;;1.37;86.55;100989.70;103198;1326;37198;-72
2022/12/20 05:47:41;;;;;;;24.60;14.60;;;;;;;1.38;86.54;100995.23;103189;1326;37170;-73
2022/12/20 05:50:16;;;;;;;24.80;16.10;;;;;;;1.42;86.65;100995.60;103132;1326;37098;-73
2022/12/20 05:52:49;;;;;;;29.10;16.00;;;;;;;1.45;86.73;100998.23;103135;1329;37127;-73
2022/12/20 05:55:23;;;;;;;25.20;14.40;;;;;;;1.45;86.56;100997.70;103112;1327;37493;-73
2022/12/20 05:57:57;;;;;;;21.90;13.40;;;;;;;1.47;86.64;100999.44;103123;1329;37799;-72
2022/12/20 06:00:31;;;;;;;26.50;15.20;;;;;;;1.50;86.47;101001.18;103125;1329;36287;-72
2022/12/20 06:03:05;;;;;;;25.30;15.00;;;;;;;1.50;86.21;100995.52;103178;1329;37528;-70
2022/12/20 06:05:39;;;;;;;26.60;15.30;;;;;;;1.50;86.38;100991.56;102956;1329;173091;-69
2022/12/20 06:08:13;;;;;;;24.80;14.40;;;;;;;1.50;86.48;100992.23;103101;1329;37092;-73
2022/12/20 06:10:47;;;;;;;22.10;14.30;;;;;;;1.50;86.32;100992.59;103069;1329;36711;-73
2022/12/20 06:13:21;;;;;;;24.60;14.00;;;;;;;1.47;86.35;100992.91;103105;1329;37446;-72
2022/12/20 06:15:55;;;;;;;22.40;14.00;;;;;;;1.46;86.30;100991.52;103121;1329;36510;-72
2022/12/20 06:18:29;;;;;;;22.20;13.90;;;;;;;1.48;86.51;100994.98;103122;1331;37677;-72
2022/12/20 06:21:04;;;;;;;24.80;15.20;;;;;;;1.51;86.51;100998.61;103087;1329;36464;-72
2022/12/20 06:23:38;;;;;;;24.60;16.00;;;;;;;1.53;86.49;100998.29;103151;1326;38948;-72
2022/12/20 06:26:12;;;;;;;21.60;14.00;;;;;;;1.53;86.44;101002.58;103164;1329;37996;-73
2022/12/20 06:28:51;;;;;;;25.00;14.20;;;;;;;1.53;86.33;100998.46;103017;1328;174957;-73
2022/12/20 06:31:23;;;;;;;;;;;;;;;1.52;86.26;100998.63;103197;1326;37117;-73
2022/12/20 06:33:57;;;;;;;24.30;14.30;;;;;;;1.47;86.35;100997.71;103213;1329;38069;-73
2022/12/20 06:36:31;;;;;;;24.20;14.00;;;;;;;1.48;86.52;100993.96;103165;1326;37308;-72
2022/12/20 06:39:06;;;;;;;27.80;16.10;;;;;;;1.49;86.54;100992.24;103164;1325;37274;-72
2022/12/20 06:41:40;;;;;;;24.70;15.70;;;;;;;1.54;86.59;100991.77;103183;1329;36249;-72
2022/12/20 06:44:14;;;;;;;24.80;14.50;;;;;;;1.55;86.41;100992.29;103176;1326;37064;-71
2022/12/20 06:46:48;;;;;;;25.00;14.90;;;;;;;1.55;86.33;100987.48;103154;1326;38073;-71
2022/12/20 06:49:23;;;;;;;24.70;14.60;;;;;;;1.58;86.41;101002.79;102814;1326;431882;-72
2022/12/20 06:52:00;;;;;;;24.70;14.30;;;;;;;1.57;86.06;101004.85;103145;1329;37199;-72
2022/12/20 06:54:33;;;;;;;25.50;14.90;;;;;;;1.58;86.19;101004.34;103080;1326;37122;-74
2022/12/20 06:57:08;;;;;;;27.90;15.90;;;;;;;1.59;86.10;101009.52;103107;1326;37713;-73
2022/12/20 06:59:42;;;;;;;29.40;16.60;;;;;;;1.62;86.16;101007.48;103117;1329;37278;-73
2022/12/20 07:02:16;;;;;;;27.80;15.80;;;;;;;1.65;86.09;101006.64;102477;1329;914130;-73
2022/12/20 07:04:50;;;;;;;26.70;15.50;;;;;;;1.67;85.99;101008.55;103084;1330;36280;-73
2022/12/20 07:07:24;;;;;;;26.30;15.20;;;;;;;1.69;85.89;101012.20;103133;1327;37328;-73
2022/12/20 07:09:58;;;;;;;27.20;15.10;;;;;;;1.72;85.75;101009.11;103144;1326;37296;-73
2022/12/20 07:12:32;;;;;;;25.90;15.50;;;;;;;1.74;85.75;101014.30;103107;1326;37254;-73
2022/12/20 07:15:11;;;;;;;28.80;16.10;;;;;;;1.76;85.75;101012.24;103159;1329;37464;-72
2022/12/20 07:17:45;;;;;;;26.90;15.50;;;;;;;1.77;85.68;101010.89;103160;1325;37128;-74
2022/12/20 07:20:19;;;;;;;25.20;15.00;;;;;;;1.81;85.69;101018.48;103133;1326;37258;-74
2022/12/20 07:22:53;;;;;;;24.90;15.10;;;;;;;1.84;85.59;101013.52;103166;1329;37119;-75
2022/12/20 07:25:27;;;;;;;23.90;14.40;;;;;;;1.87;85.51;101011.64;103159;1328;36661;-74
2022/12/20 07:28:01;;;;;;;24.40;14.70;;;;;;;1.90;85.42;101002.71;103099;1329;175118;-73
2022/12/20 07:30:35;;;;;;;28.50;16.40;;;;;;;1.95;85.23;101001.02;103138;1329;37268;-73
2022/12/20 07:33:09;;;;;;;26.20;16.20;;;;;;;1.95;85.07;101004.13;103160;1329;37262;-72
2022/12/20 07:35:44;;;;;;;27.00;15.80;;;;;;;1.93;84.87;101003.77;103118;1329;37226;-73
2022/12/20 07:38:18;;;;;;;25.20;15.00;;;;;;;1.93;84.90;101002.75;103121;1330;37114;-73
2022/12/20 07:40:52;;;;;;;24.60;15.50;;;;;;;1.95;84.85;101003.09;103095;1329;36132;-73
2022/12/20 07:43:26;;;;;;;27.60;16.20;;;;;;;1.99;85.00;101003.83;103095;1329;37166;-74
2022/12/20 07:46:01;;;;;;;28.60;16.30;;;;;;;2.03;84.73;101005.06;103092;1329;36895;-73
2022/12/20 07:48:36;;;;;;;27.60;16.10;;;;;;;2.05;84.54;101000.77;103091;1329;37297;-73
2022/12/20 07:51:12;;;;;;;27.80;16.00;;;;;;;2.04;84.35;100999.72;103082;1329;37136;-71
2022/12/20 07:53:49;;;;;;;27.60;16.00;;;;;;;2.08;84.38;101000.27;103225;1326;37650;-71
2022/12/20 07:56:23;;;;;;;26.90;15.30;;;;;;;2.12;84.30;101000.27;103100;1329;37136;-74
2022/12/20 07:58:58;;;;;;;26.70;15.90;;;;;;;2.14;84.22;100998.77;103154;1330;39101;-73
2022/12/20 08:01:32;;;;;;;28.70;17.40;;;;;;;2.17;84.01;100997.91;103076;1328;37200;-73
2022/12/20 08:04:18;;;;;;;27.10;16.30;;;;;;;2.17;83.93;101000.84;103113;1325;38699;-71
2022/12/20 08:06:57;;;;;;;29.40;17.10;;;;;;;2.16;83.78;101003.94;103140;1329;37228;-73
2022/12/20 08:09:35;;;;;;;28.80;16.20;;;;;;;2.16;83.74;101006.15;103049;1326;173004;-71
2022/12/20 08:12:11;;;;;;;23.70;14.60;;;;;;;2.18;83.73;101003.45;103152;1329;37331;-73
2022/12/20 08:14:47;;;;;;;25.30;15.50;;;;;;;2.20;83.61;101001.02;103201;1326;37169;-73
2022/12/20 08:17:22;;;;;;;30.90;17.10;;;;;;;2.21;83.58;101000.70;103214;1330;39697;-72
2022/12/20 08:19:59;;;;;;;28.10;16.10;;;;;;;2.21;83.48;101001.38;103118;1330;37138;-74
2022/12/20 08:22:34;;;;;;;27.20;14.40;;;;;;;2.22;83.37;100997.62;103143;1329;37590;-74
2022/12/20 08:25:10;;;;;;;27.50;15.90;;;;;;;2.25;83.45;100998.48;103129;1330;37497;-72
2022/12/20 08:27:44;;;;;;;25.60;15.40;;;;;;;2.28;83.23;101001.43;103107;1329;36555;-74
2022/12/20 08:30:20;;;;;;;27.10;16.10;;;;;;;2.32;83.28;100996.97;103121;1326;37513;-73
2022/12/20 08:32:54;;;;;;;33.50;17.40;;;;;;;2.38;83.26;100997.36;103146;1326;37812;-74
2022/12/20 08:35:28;;;;;;;30.50;17.00;;;;;;;2.43;83.14;101002.38;103121;1329;36371;-74
2022/12/20 08:38:02;;;;;;;25.90;15.80;;;;;;;2.45;83.12;101000.31;103117;1315;37761;-71
2022/12/20 08:40:36;;;;;;;25.70;15.40;;;;;;;2.48;83.01;100996.20;102983;1328;37524;-73
2022/12/20 08:43:10;;;;;;;24.80;14.80;;;;;;;2.52;82.98;100997.77;103155;1329;37374;-73
2022/12/20 08:45:44;;;;;;;28.50;16.80;;;;;;;2.59;82.99;101002.96;103098;1326;37142;-71
2022/12/20 08:48:18;;;;;;;29.00;17.40;;;;;;;2.64;82.76;101003.16;103149;1329;37111;-73
2022/12/20 08:50:57;;;;;;;28.80;18.00;;;;;;;2.68;82.55;100998.36;103082;1326;37246;-73
2022/12/20 08:53:31;;;;;;;31.10;17.10;;;;;;;2.72;82.35;100996.66;103168;1329;37196;-72
2022/12/20 08:56:15;;;;;;;25.90;16.20;;;;;;;2.75;82.26;100996.49;103138;1325;37193;-72
2022/12/20 08:58:49;;;;;;;29.20;16.30;;;;;;;2.79;82.22;100995.82;103130;1329;37751;-73
2022/12/20 09:01:25;;;;;;;30.40;17.00;;;;;;;2.85;82.43;101001.52;103083;1327;37206;-74
2022/12/20 09:03:59;;;;;;;27.70;17.30;;;;;;;2.95;82.39;101004.32;103155;1328;37672;-73
2022/12/20 09:06:34;;;;;;;30.50;18.20;;;;;;;3.01;82.25;100996.41;103140;1329;37530;-73
2022/12/20 09:09:09;;;;;;;29.40;17.20;;;;;;;3.06;82.10;100994.70;103160;1326;37631;-73
2022/12/20 09:11:46;;;;;;;28.90;16.90;;;;;;;3.11;82.09;101000.41;103172;1329;38332;-74
2022/12/20 09:14:21;;;;;;;30.80;18.50;;;;;;;3.16;82.04;101002.14;103175;1329;36740;-75
2022/12/20 09:16:57;;;;;;;30.30;18.10;;;;;;;3.25;81.54;100988.38;103112;1327;37305;-73
2022/12/20 09:19:32;;;;;;;30.10;18.40;;;;;;;3.37;81.46;100979.24;103134;1326;37259;-73
2022/12/20 09:22:08;;;;;;;32.60;19.10;;;;;;;3.49;81.25;100980.13;103124;1326;36560;-72
2022/12/20 09:24:42;;;;;;;31.00;18.00;;;;;;;3.59;81.06;100981.67;103135;1328;37825;-70
2022/12/20 09:27:17;;;;;;;30.70;18.00;;;;;;;3.71;80.75;100980.80;103079;1325;37197;-73
2022/12/20 09:29:51;;;;;;;29.70;18.80;;;;;;;3.75;80.07;100978.23;103061;1328;36380;-74
2022/12/20 09:32:26;;;;;;;32.50;19.30;;;;;;;3.82;80.20;100977.02;103091;1329;37637;-72
2022/12/20 09:35:02;;;;;;;36.70;20.90;;;;;;;3.94;80.32;100977.86;103068;1325;37225;-73
2022/12/20 09:37:36;;;;;;;33.10;20.10;;;;;;;4.06;80.09;100971.11;103094;1325;37116;-73
2022/12/20 09:40:17;;;;;;;31.30;18.10;;;;;;;4.15;79.84;100969.20;102990;1326;175018;-74
2022/12/20 09:42:52;;;;;;;32.30;18.30;;;;;;;4.27;79.69;100966.24;103126;1329;37365;-72
2022/12/20 09:45:35;;;;;;;30.00;18.20;;;;;;;4.37;78.84;100961.73;103052;1329;37234;-72
2022/12/20 09:48:11;;;;;;;33.40;18.80;;;;;;;4.45;78.17;100973.43;102987;1329;36372;-71
2022/12/20 09:50:50;;;;;;;33.30;19.50;;;;;;;4.53;77.99;100974.09;103134;1326;37628;-74
2022/12/20 09:53:26;;;;;;;;;;;;;;;4.69;77.88;100979.39;103210;1329;37301;-74
2022/12/20 09:56:06;;;;;;;33.40;19.40;;;;;;;4.74;77.35;100978.52;103165;1326;37137;-74
2022/12/20 09:58:55;;;;;;;32.60;18.00;;;;;;;4.81;76.63;100982.79;103110;1331;37248;-75
2022/12/20 10:01:32;;;;;;;29.70;19.00;;;;;;;4.92;76.53;100980.33;103071;1329;36268;-74
2022/12/20 10:04:12;;;;;;;33.00;18.90;;;;;;;5.00;75.44;100973.02;103131;1326;37124;-70
2022/12/20 10:06:54;;;;;;;27.90;17.90;;;;;;;5.08;75.81;100975.75;103099;1329;37270;-73
2022/12/20 10:09:43;;;;;;;32.00;19.10;;;;;;;5.16;75.00;100973.27;103103;1331;37285;-73
2022/12/20 10:12:31;;;;;;;31.50;19.30;;;;;;;5.31;74.27;100977.84;103083;1329;37128;-73
2022/12/20 10:15:22;;;;;;;33.20;19.10;;;;;;;5.51;74.40;100980.65;103085;1329;36407;-73
2022/12/20 10:18:16;;;;;;;30.20;19.40;;;;;;;5.65;73.99;100978.63;103150;1329;37241;-75
2022/12/20 10:21:00;;;;;;;33.40;19.40;;;;;;;5.74;73.78;100968.53;103108;1329;36878;-74
2022/12/20 10:23:37;;;;;;;33.60;20.00;;;;;;;5.71;73.04;100974.44;103128;1327;37235;-73
2022/12/20 10:26:14;;;;;;;31.50;19.60;;;;;;;5.62;72.60;100979.01;103048;1329;37255;-73
2022/12/20 10:28:49;;;;;;;32.20;19.90;;;;;;;5.50;71.98;100979.27;103075;1329;37206;-74
2022/12/20 10:31:24;;;;;;;32.90;19.30;;;;;;;5.37;71.23;100975.20;103102;1326;37201;-74
2022/12/20 10:33:59;;;;;;;28.50;18.20;;;;;;;5.26;71.41;100971.30;103110;1327;38021;-73
2022/12/20 10:36:34;;;;;;;29.70;18.30;;;;;;;5.19;71.51;100967.89;103081;1328;37178;-74
2022/12/20 10:39:09;;;;;;;32.50;20.50;;;;;;;5.13;72.04;100967.58;103107;1326;37195;-73
2022/12/20 10:41:52;;;;;;;31.60;19.20;;;;;;;5.08;71.91;100962.60;103073;1327;38568;-72
2022/12/20 10:44:28;;;;;;;32.00;20.10;;;;;;;5.03;71.82;100956.40;103085;1326;37289;-73
2022/12/20 10:47:02;;;;;;;34.30;19.60;;;;;;;4.94;71.95;100954.21;103114;1326;37361;-73
2022/12/20 10:49:39;;;;;;;33.30;19.00;;;;;;;4.84;71.58;100951.50;103068;1329;37371;-73
2022/12/20 10:52:17;;;;;;;33.20;19.80;;;;;;;4.71;71.49;100950.86;103083;1331;37703;-73
2022/12/20 10:54:51;;;;;;;33.30;20.10;;;;;;;4.62;71.52;100956.78;103087;1325;36358;-72
2022/12/20 10:57:27;;;;;;;34.70;20.90;;;;;;;4.55;71.93;100952.50;103053;1327;38370;-73
2022/12/20 11:00:04;;;;;;;34.60;21.40;;;;;;;4.47;71.84;100940.95;103090;1326;38309;-72
2022/12/20 11:02:39;;;;;;;35.60;20.00;;;;;;;4.34;71.86;100928.73;103110;1326;37523;-72
2022/12/20 11:05:26;;;;;;;31.20;18.50;;;;;;;4.24;71.36;100917.20;103116;1329;38340;-73
2022/12/20 11:08:09;;;;;;;31.10;19.70;;;;;;;4.15;71.73;100903.75;103114;1325;38763;-73
2022/12/20 11:10:44;;;;;;;36.00;21.60;;;;;;;4.12;71.22;100895.83;103037;1327;37917;-72
2022/12/20 11:13:28;;;;;;;35.30;20.20;;;;;;;4.10;71.81;100888.92;103122;1329;36261;-73
2022/12/20 11:16:03;;;;;;;32.60;18.20;;;;;;;4.08;71.75;100885.13;103110;1329;37663;-73
2022/12/20 11:18:44;;;;;;;32.60;18.80;;;;;;;3.99;71.66;100887.58;103155;1326;37326;-73
2022/12/20 11:21:26;;;;;;;32.80;18.90;;;;;;;3.95;71.83;100887.41;103118;1325;37201;-73
2022/12/20 11:24:06;;;;;;;35.20;20.80;;;;;;;3.94;72.35;100882.94;103118;1326;37271;-73
2022/12/20 11:26:58;;;;;;;36.10;21.20;;;;;;;4.01;72.74;100888.09;103157;1329;36223;-73
2022/12/20 11:30:09;;;;;;;35.00;19.70;;;;;;;4.06;72.61;100893.42;103124;1326;37426;-73
2022/12/20 11:33:05;;;;;;;31.70;18.90;;;;;;;4.12;72.57;100898.41;103163;1330;37215;-72
2022/12/20 11:35:49;;;;;;;36.60;21.00;;;;;;;4.19;73.03;100898.73;103069;1328;37778;-72
2022/12/20 11:38:36;;;;;;;36.50;20.90;;;;;;;4.22;73.10;100894.05;103116;1329;37121;-71
2022/12/20 11:41:21;;;;;;;36.90;21.40;;;;;;;4.26;72.83;100887.32;103093;1326;37356;-73
2022/12/20 11:44:13;;;;;;;37.70;21.20;;;;;;;4.25;72.62;100883.52;103096;1326;37355;-74
2022/12/20 11:47:01;;;;;;;34.20;20.80;;;;;;;4.25;72.30;100887.33;103101;1326;37219;-74
2022/12/20 11:49:58;;;;;;;36.30;20.80;;;;;;;4.29;72.20;100887.83;103059;1329;37463;-71
2022/12/20 11:52:39;;;;;;;36.90;20.60;;;;;;;4.35;72.56;100887.45;103069;1326;37142;-73
2022/12/20 11:55:22;;;;;;;38.60;22.20;;;;;;;4.44;72.60;100883.61;103061;1326;36722;-73
2022/12/20 11:58:00;;;;;;;33.70;19.80;;;;;;;4.53;72.86;100872.33;103148;1329;36431;-72
2022/12/20 12:00:35;;;;;;;37.60;20.80;;;;;;;4.61;72.74;100867.62;103095;1326;37219;-72
2022/12/20 12:03:18;;;;;;;34.50;20.90;;;;;;;4.68;72.83;100863.79;103164;1328;36869;-71